MET'MAP v2.0
soon released !

Expected late october,
this new version will be
more efficient, smarter,
and hosted on a brand new
server x3 powerfull...
...and still free !


Not compatible ?
Try the mobile version !

LOG IN : | Subscribe | Disclaimer | Who is Orbifly ? |
ICAO code :

TAF - EHTW Enschede Airport Twente - 09 Dec 2019 02:47 UTC
Data Sources :     NOAA   


- Airport Elevation : 114 ft
- IATA code : ENS
- No reported NOTAMs.


EHTW - Enschede Airport Twente

Latest METAR recorded : 2008/04/07 12:25 EHTW 071225Z AUTO 01006KT //// // BKN200/// 08/M04 Q1002 RE//
TAF N/A

Source NOAA


MET'MAP, your aeronautical weather chart ! - Copyright ORBIFLY December 2007

Programming & Development : Alexandra Zaïnal
Co-Developer : Marc-Olivier Méhu
Technical & hardware support : Manuel Goepfert
Concept & Financing : Baudouin d'Aumeries